sensor_id;sensor_type;location;lat;lon;timestamp;temperature;humidity
16229;DHT22;8222;51.462;12.630;2022-07-24T00:01:48;19.70;99.90
16229;DHT22;8222;51.462;12.630;2022-07-24T00:04:15;19.60;99.90
16229;DHT22;8222;51.462;12.630;2022-07-24T00:06:41;19.60;99.90
16229;DHT22;8222;51.462;12.630;2022-07-24T00:09:07;19.60;99.90
16229;DHT22;8222;51.462;12.630;2022-07-24T00:11:35;19.60;99.90
16229;DHT22;8222;51.462;12.630;2022-07-24T00:14:01;19.60;99.90
16229;DHT22;8222;51.462;12.630;2022-07-24T00:16:27;19.60;99.90
16229;DHT22;8222;51.462;12.630;2022-07-24T00:18:53;19.60;99.90
16229;DHT22;8222;51.462;12.630;2022-07-24T00:21:18;19.60;99.90
16229;DHT22;8222;51.462;12.630;2022-07-24T00:23:44;19.60;99.90
16229;DHT22;8222;51.462;12.630;2022-07-24T00:26:11;19.60;99.90
16229;DHT22;8222;51.462;12.630;2022-07-24T00:28:38;19.70;99.90
16229;DHT22;8222;51.462;12.630;2022-07-24T00:31:05;19.60;99.90
16229;DHT22;8222;51.462;12.630;2022-07-24T00:33:31;19.60;99.90
16229;DHT22;8222;51.462;12.630;2022-07-24T00:35:56;19.50;99.90
16229;DHT22;8222;51.462;12.630;2022-07-24T00:38:22;19.60;99.90
16229;DHT22;8222;51.462;12.630;2022-07-24T00:40:48;19.40;99.90
16229;DHT22;8222;51.462;12.630;2022-07-24T00:43:15;19.40;99.90
16229;DHT22;8222;51.462;12.630;2022-07-24T00:45:43;19.30;99.90
16229;DHT22;8222;51.462;12.630;2022-07-24T00:48:09;19.40;99.90
16229;DHT22;8222;51.462;12.630;2022-07-24T00:50:35;19.40;99.90
16229;DHT22;8222;51.462;12.630;2022-07-24T00:53:03;19.40;99.90
16229;DHT22;8222;51.462;12.630;2022-07-24T00:55:29;19.50;99.90
16229;DHT22;8222;51.462;12.630;2022-07-24T00:57:55;19.50;99.90
16229;DHT22;8222;51.462;12.630;2022-07-24T01:00:21;19.50;99.90
16229;DHT22;8222;51.462;12.630;2022-07-24T01:02:50;19.60;99.90
16229;DHT22;8222;51.462;12.630;2022-07-24T01:05:16;19.70;99.90
16229;DHT22;8222;51.462;12.630;2022-07-24T01:07:42;19.50;99.90
16229;DHT22;8222;51.462;12.630;2022-07-24T01:10:08;19.60;99.90
16229;DHT22;8222;51.462;12.630;2022-07-24T01:12:38;19.70;99.90
16229;DHT22;8222;51.462;12.630;2022-07-24T01:15:06;19.60;99.90
16229;DHT22;8222;51.462;12.630;2022-07-24T01:17:38;19.60;99.90
16229;DHT22;8222;51.462;12.630;2022-07-24T01:20:05;19.50;99.90
16229;DHT22;8222;51.462;12.630;2022-07-24T01:22:33;19.40;99.90
16229;DHT22;8222;51.462;12.630;2022-07-24T01:24:59;19.30;99.90
16229;DHT22;8222;51.462;12.630;2022-07-24T01:27:25;19.20;99.90
16229;DHT22;8222;51.462;12.630;2022-07-24T01:29:51;19.10;99.90
16229;DHT22;8222;51.462;12.630;2022-07-24T01:32:17;19.00;99.90
16229;DHT22;8222;51.462;12.630;2022-07-24T01:34:45;18.90;99.90
16229;DHT22;8222;51.462;12.630;2022-07-24T01:37:10;19.00;99.90
16229;DHT22;8222;51.462;12.630;2022-07-24T01:39:38;18.90;99.90
16229;DHT22;8222;51.462;12.630;2022-07-24T01:42:04;18.80;99.90
16229;DHT22;8222;51.462;12.630;2022-07-24T01:44:30;18.80;99.90
16229;DHT22;8222;51.462;12.630;2022-07-24T01:46:55;18.70;99.90
16229;DHT22;8222;51.462;12.630;2022-07-24T01:49:23;18.70;99.90
16229;DHT22;8222;51.462;12.630;2022-07-24T01:51:49;18.70;99.90
16229;DHT22;8222;51.462;12.630;2022-07-24T01:54:14;18.70;99.90
16229;DHT22;8222;51.462;12.630;2022-07-24T01:56:40;18.50;99.90
16229;DHT22;8222;51.462;12.630;2022-07-24T01:59:06;18.50;99.90
16229;DHT22;8222;51.462;12.630;2022-07-24T02:01:32;18.50;99.90
16229;DHT22;8222;51.462;12.630;2022-07-24T02:04:00;18.40;99.90
16229;DHT22;8222;51.462;12.630;2022-07-24T02:06:26;18.40;99.90
16229;DHT22;8222;51.462;12.630;2022-07-24T02:08:51;18.40;99.90
16229;DHT22;8222;51.462;12.630;2022-07-24T02:11:19;18.50;99.90
16229;DHT22;8222;51.462;12.630;2022-07-24T02:13:45;18.40;99.90
16229;DHT22;8222;51.462;12.630;2022-07-24T02:16:11;18.40;99.90
16229;DHT22;8222;51.462;12.630;2022-07-24T02:18:37;18.30;99.90
16229;DHT22;8222;51.462;12.630;2022-07-24T02:21:03;18.30;99.90
16229;DHT22;8222;51.462;12.630;2022-07-24T02:23:29;18.30;99.90
16229;DHT22;8222;51.462;12.630;2022-07-24T02:25:54;18.10;99.90
16229;DHT22;8222;51.462;12.630;2022-07-24T02:28:20;17.90;99.90
16229;DHT22;8222;51.462;12.630;2022-07-24T02:30:46;17.80;99.90
16229;DHT22;8222;51.462;12.630;2022-07-24T02:33:11;17.80;99.90
16229;DHT22;8222;51.462;12.630;2022-07-24T02:35:39;18.00;99.90
16229;DHT22;8222;51.462;12.630;2022-07-24T02:38:05;18.20;99.90
16229;DHT22;8222;51.462;12.630;2022-07-24T02:40:31;17.90;99.90
16229;DHT22;8222;51.462;12.630;2022-07-24T02:42:57;17.80;99.90
16229;DHT22;8222;51.462;12.630;2022-07-24T02:45:23;17.90;99.90
16229;DHT22;8222;51.462;12.630;2022-07-24T02:47:54;17.90;99.90
16229;DHT22;8222;51.462;12.630;2022-07-24T02:50:22;17.80;99.90
16229;DHT22;8222;51.462;12.630;2022-07-24T02:52:49;17.70;99.90
16229;DHT22;8222;51.462;12.630;2022-07-24T02:55:16;17.80;99.90
16229;DHT22;8222;51.462;12.630;2022-07-24T02:57:42;17.90;99.90
16229;DHT22;8222;51.462;12.630;2022-07-24T03:00:14;17.90;99.90
16229;DHT22;8222;51.462;12.630;2022-07-24T03:02:41;18.00;99.90
16229;DHT22;8222;51.462;12.630;2022-07-24T03:05:07;17.90;99.90
16229;DHT22;8222;51.462;12.630;2022-07-24T03:07:33;18.00;99.90
16229;DHT22;8222;51.462;12.630;2022-07-24T03:10:03;18.00;99.90
16229;DHT22;8222;51.462;12.630;2022-07-24T03:12:29;18.30;99.90
16229;DHT22;8222;51.462;12.630;2022-07-24T03:14:55;18.50;99.90
16229;DHT22;8222;51.462;12.630;2022-07-24T03:17:20;18.50;99.90
16229;DHT22;8222;51.462;12.630;2022-07-24T03:19:48;18.30;99.90
16229;DHT22;8222;51.462;12.630;2022-07-24T03:22:13;18.30;99.90
16229;DHT22;8222;51.462;12.630;2022-07-24T03:24:39;18.30;99.90
16229;DHT22;8222;51.462;12.630;2022-07-24T03:27:05;18.20;99.90
16229;DHT22;8222;51.462;12.630;2022-07-24T03:29:30;18.20;99.90
16229;DHT22;8222;51.462;12.630;2022-07-24T03:31:58;18.20;99.90
16229;DHT22;8222;51.462;12.630;2022-07-24T03:34:23;18.30;99.90
16229;DHT22;8222;51.462;12.630;2022-07-24T03:36:49;18.20;99.90
16229;DHT22;8222;51.462;12.630;2022-07-24T03:39:14;18.10;99.90
16229;DHT22;8222;51.462;12.630;2022-07-24T03:41:42;18.00;99.90
16229;DHT22;8222;51.462;12.630;2022-07-24T03:44:08;18.00;99.90
16229;DHT22;8222;51.462;12.630;2022-07-24T03:46:34;18.10;99.90
16229;DHT22;8222;51.462;12.630;2022-07-24T03:49:00;18.10;99.90
16229;DHT22;8222;51.462;12.630;2022-07-24T03:51:26;18.10;99.90
16229;DHT22;8222;51.462;12.630;2022-07-24T03:53:52;18.20;99.90
16229;DHT22;8222;51.462;12.630;2022-07-24T03:56:17;18.10;99.90
16229;DHT22;8222;51.462;12.630;2022-07-24T03:58:43;18.00;99.90
16229;DHT22;8222;51.462;12.630;2022-07-24T04:01:09;17.80;99.90
16229;DHT22;8222;51.462;12.630;2022-07-24T04:03:36;17.70;99.90
16229;DHT22;8222;51.462;12.630;2022-07-24T04:06:03;17.60;99.90
16229;DHT22;8222;51.462;12.630;2022-07-24T04:08:29;17.80;99.90
16229;DHT22;8222;51.462;12.630;2022-07-24T04:10:54;18.00;99.90
16229;DHT22;8222;51.462;12.630;2022-07-24T04:13:28;18.20;99.90
16229;DHT22;8222;51.462;12.630;2022-07-24T04:15:55;18.10;99.90
16229;DHT22;8222;51.462;12.630;2022-07-24T04:18:21;18.00;99.90
16229;DHT22;8222;51.462;12.630;2022-07-24T04:20:48;18.00;99.90
16229;DHT22;8222;51.462;12.630;2022-07-24T04:23:15;18.20;99.90
16229;DHT22;8222;51.462;12.630;2022-07-24T04:25:41;18.40;99.90
16229;DHT22;8222;51.462;12.630;2022-07-24T04:28:07;18.40;99.90
16229;DHT22;8222;51.462;12.630;2022-07-24T04:30:32;18.60;99.90
16229;DHT22;8222;51.462;12.630;2022-07-24T04:33:00;18.50;99.90
16229;DHT22;8222;51.462;12.630;2022-07-24T04:35:26;18.40;99.90
16229;DHT22;8222;51.462;12.630;2022-07-24T04:37:52;18.60;99.90
16229;DHT22;8222;51.462;12.630;2022-07-24T04:40:17;18.70;99.90
16229;DHT22;8222;51.462;12.630;2022-07-24T04:42:46;18.70;99.90
16229;DHT22;8222;51.462;12.630;2022-07-24T04:45:11;18.80;99.90
16229;DHT22;8222;51.462;12.630;2022-07-24T04:47:38;18.80;99.90
16229;DHT22;8222;51.462;12.630;2022-07-24T04:50:05;19.00;99.90
16229;DHT22;8222;51.462;12.630;2022-07-24T04:52:33;19.40;99.90
16229;DHT22;8222;51.462;12.630;2022-07-24T04:54:59;19.50;99.90
16229;DHT22;8222;51.462;12.630;2022-07-24T04:57:24;19.60;99.90
16229;DHT22;8222;51.462;12.630;2022-07-24T04:59:50;19.50;99.90
16229;DHT22;8222;51.462;12.630;2022-07-24T05:02:18;19.50;99.90
16229;DHT22;8222;51.462;12.630;2022-07-24T05:04:43;20.40;99.90
16229;DHT22;8222;51.462;12.630;2022-07-24T05:07:09;19.80;99.90
16229;DHT22;8222;51.462;12.630;2022-07-24T05:09:35;19.80;99.90
16229;DHT22;8222;51.462;12.630;2022-07-24T05:12:00;19.50;99.90
16229;DHT22;8222;51.462;12.630;2022-07-24T05:14:26;19.60;99.90
16229;DHT22;8222;51.462;12.630;2022-07-24T05:16:52;19.50;99.90
16229;DHT22;8222;51.462;12.630;2022-07-24T05:19:18;19.30;99.90
16229;DHT22;8222;51.462;12.630;2022-07-24T05:21:43;19.20;99.90
16229;DHT22;8222;51.462;12.630;2022-07-24T05:24:09;19.20;99.90
16229;DHT22;8222;51.462;12.630;2022-07-24T05:26:35;19.20;99.90
16229;DHT22;8222;51.462;12.630;2022-07-24T05:29:03;19.20;99.90
16229;DHT22;8222;51.462;12.630;2022-07-24T05:31:31;19.20;99.90
16229;DHT22;8222;51.462;12.630;2022-07-24T05:33:57;19.10;99.90
16229;DHT22;8222;51.462;12.630;2022-07-24T05:36:24;19.20;99.90
16229;DHT22;8222;51.462;12.630;2022-07-24T05:38:51;19.30;99.90
16229;DHT22;8222;51.462;12.630;2022-07-24T05:41:17;19.40;99.90
16229;DHT22;8222;51.462;12.630;2022-07-24T05:43:43;19.50;99.90
16229;DHT22;8222;51.462;12.630;2022-07-24T05:46:10;19.60;99.90
16229;DHT22;8222;51.462;12.630;2022-07-24T05:48:36;19.70;99.90
16229;DHT22;8222;51.462;12.630;2022-07-24T05:51:02;19.80;99.90
16229;DHT22;8222;51.462;12.630;2022-07-24T05:53:28;20.00;99.90
16229;DHT22;8222;51.462;12.630;2022-07-24T05:55:56;20.10;99.90
16229;DHT22;8222;51.462;12.630;2022-07-24T05:58:21;20.30;99.90
16229;DHT22;8222;51.462;12.630;2022-07-24T06:00:47;20.40;99.90
16229;DHT22;8222;51.462;12.630;2022-07-24T06:03:15;20.50;99.90
16229;DHT22;8222;51.462;12.630;2022-07-24T06:05:41;20.40;99.90
16229;DHT22;8222;51.462;12.630;2022-07-24T06:08:06;20.50;99.90
16229;DHT22;8222;51.462;12.630;2022-07-24T06:10:32;20.80;99.90
16229;DHT22;8222;51.462;12.630;2022-07-24T06:12:58;20.90;99.90
16229;DHT22;8222;51.462;12.630;2022-07-24T06:15:24;21.10;99.90
16229;DHT22;8222;51.462;12.630;2022-07-24T06:17:49;21.10;99.90
16229;DHT22;8222;51.462;12.630;2022-07-24T06:20:16;21.20;99.90
16229;DHT22;8222;51.462;12.630;2022-07-24T06:22:43;21.30;99.90
16229;DHT22;8222;51.462;12.630;2022-07-24T06:25:09;21.50;99.90
16229;DHT22;8222;51.462;12.630;2022-07-24T06:27:49;21.70;99.90
16229;DHT22;8222;51.462;12.630;2022-07-24T06:30:22;21.90;99.90
16229;DHT22;8222;51.462;12.630;2022-07-24T06:32:48;21.90;99.90
16229;DHT22;8222;51.462;12.630;2022-07-24T06:35:15;22.00;99.90
16229;DHT22;8222;51.462;12.630;2022-07-24T06:37:41;22.10;99.90
16229;DHT22;8222;51.462;12.630;2022-07-24T06:40:09;22.20;99.90
16229;DHT22;8222;51.462;12.630;2022-07-24T06:42:35;22.30;99.90
16229;DHT22;8222;51.462;12.630;2022-07-24T06:45:01;22.40;99.90
16229;DHT22;8222;51.462;12.630;2022-07-24T06:47:27;22.50;99.90
16229;DHT22;8222;51.462;12.630;2022-07-24T06:49:55;22.60;99.90
16229;DHT22;8222;51.462;12.630;2022-07-24T06:52:22;22.70;99.90
16229;DHT22;8222;51.462;12.630;2022-07-24T06:54:48;22.80;99.90
16229;DHT22;8222;51.462;12.630;2022-07-24T06:57:16;22.90;99.90
16229;DHT22;8222;51.462;12.630;2022-07-24T06:59:44;23.00;99.90
16229;DHT22;8222;51.462;12.630;2022-07-24T07:02:12;23.00;99.90
16229;DHT22;8222;51.462;12.630;2022-07-24T07:04:38;23.10;99.90
16229;DHT22;8222;51.462;12.630;2022-07-24T07:07:04;23.30;99.90
16229;DHT22;8222;51.462;12.630;2022-07-24T07:09:31;23.40;99.90
16229;DHT22;8222;51.462;12.630;2022-07-24T07:11:57;23.40;99.90
16229;DHT22;8222;51.462;12.630;2022-07-24T07:14:22;23.50;99.90
16229;DHT22;8222;51.462;12.630;2022-07-24T07:16:48;23.60;99.90
16229;DHT22;8222;51.462;12.630;2022-07-24T07:19:14;23.70;99.90
16229;DHT22;8222;51.462;12.630;2022-07-24T07:21:40;23.70;99.90
16229;DHT22;8222;51.462;12.630;2022-07-24T07:24:07;23.80;99.90
16229;DHT22;8222;51.462;12.630;2022-07-24T07:26:33;23.90;99.90
16229;DHT22;8222;51.462;12.630;2022-07-24T07:28:59;24.00;99.90
16229;DHT22;8222;51.462;12.630;2022-07-24T07:31:24;24.10;99.90
16229;DHT22;8222;51.462;12.630;2022-07-24T07:33:53;24.30;99.90
16229;DHT22;8222;51.462;12.630;2022-07-24T07:36:19;24.40;99.90
16229;DHT22;8222;51.462;12.630;2022-07-24T07:38:45;24.60;99.90
16229;DHT22;8222;51.462;12.630;2022-07-24T07:41:11;24.70;99.90
16229;DHT22;8222;51.462;12.630;2022-07-24T07:43:38;24.90;99.90
16229;DHT22;8222;51.462;12.630;2022-07-24T07:46:06;25.00;99.90
16229;DHT22;8222;51.462;12.630;2022-07-24T07:48:31;25.20;99.90
16229;DHT22;8222;51.462;12.630;2022-07-24T07:50:57;25.20;99.90
16229;DHT22;8222;51.462;12.630;2022-07-24T07:53:23;25.30;99.90
16229;DHT22;8222;51.462;12.630;2022-07-24T07:55:50;25.30;99.90
16229;DHT22;8222;51.462;12.630;2022-07-24T07:58:20;25.40;99.90
16229;DHT22;8222;51.462;12.630;2022-07-24T08:00:46;25.40;99.90
16229;DHT22;8222;51.462;12.630;2022-07-24T08:03:13;25.50;99.20
16229;DHT22;8222;51.462;12.630;2022-07-24T08:05:39;25.20;99.90
16229;DHT22;8222;51.462;12.630;2022-07-24T08:08:04;25.30;99.70
16229;DHT22;8222;51.462;12.630;2022-07-24T08:10:30;25.40;98.60
16229;DHT22;8222;51.462;12.630;2022-07-24T08:12:56;25.70;99.40
16229;DHT22;8222;51.462;12.630;2022-07-24T08:15:22;25.90;98.70
16229;DHT22;8222;51.462;12.630;2022-07-24T08:17:55;25.90;99.90
16229;DHT22;8222;51.462;12.630;2022-07-24T08:20:22;26.00;96.60
16229;DHT22;8222;51.462;12.630;2022-07-24T08:22:49;26.10;95.80
16229;DHT22;8222;51.462;12.630;2022-07-24T08:25:16;25.90;95.70
16229;DHT22;8222;51.462;12.630;2022-07-24T08:27:43;25.80;98.90
16229;DHT22;8222;51.462;12.630;2022-07-24T08:30:09;25.80;97.00
16229;DHT22;8222;51.462;12.630;2022-07-24T08:32:36;26.00;98.10
16229;DHT22;8222;51.462;12.630;2022-07-24T08:35:04;26.20;94.80
16229;DHT22;8222;51.462;12.630;2022-07-24T08:37:30;26.20;93.30
16229;DHT22;8222;51.462;12.630;2022-07-24T08:39:55;26.10;93.60
16229;DHT22;8222;51.462;12.630;2022-07-24T08:42:21;26.10;94.10
16229;DHT22;8222;51.462;12.630;2022-07-24T08:44:49;26.30;96.70
16229;DHT22;8222;51.462;12.630;2022-07-24T08:47:15;26.40;95.10
16229;DHT22;8222;51.462;12.630;2022-07-24T08:49:44;26.40;92.80
16229;DHT22;8222;51.462;12.630;2022-07-24T08:52:10;26.60;93.10
16229;DHT22;8222;51.462;12.630;2022-07-24T08:54:36;26.80;93.20
16229;DHT22;8222;51.462;12.630;2022-07-24T08:57:03;27.00;93.50
16229;DHT22;8222;51.462;12.630;2022-07-24T08:59:29;27.10;93.50
16229;DHT22;8222;51.462;12.630;2022-07-24T09:01:55;27.20;92.40
16229;DHT22;8222;51.462;12.630;2022-07-24T09:07:10;27.40;91.40
16229;DHT22;8222;51.462;12.630;2022-07-24T09:09:37;27.50;90.40
16229;DHT22;8222;51.462;12.630;2022-07-24T09:14:38;27.10;88.20
16229;DHT22;8222;51.462;12.630;2022-07-24T09:17:08;27.30;88.90
16229;DHT22;8222;51.462;12.630;2022-07-24T09:19:56;27.50;87.40
16229;DHT22;8222;51.462;12.630;2022-07-24T09:30:24;27.60;86.50
16229;DHT22;8222;51.462;12.630;2022-07-24T09:33:16;27.80;84.60
16229;DHT22;8222;51.462;12.630;2022-07-24T09:35:47;27.70;83.30
16229;DHT22;8222;51.462;12.630;2022-07-24T09:38:20;27.80;85.60
16229;DHT22;8222;51.462;12.630;2022-07-24T09:40:53;28.10;79.50
16229;DHT22;8222;51.462;12.630;2022-07-24T09:43:24;28.20;80.60
16229;DHT22;8222;51.462;12.630;2022-07-24T09:48:21;27.90;78.30
16229;DHT22;8222;51.462;12.630;2022-07-24T09:50:55;27.80;81.30
16229;DHT22;8222;51.462;12.630;2022-07-24T09:53:27;28.00;82.20
16229;DHT22;8222;51.462;12.630;2022-07-24T09:56:14;28.10;77.80
16229;DHT22;8222;51.462;12.630;2022-07-24T09:58:48;28.20;79.50
16229;DHT22;8222;51.462;12.630;2022-07-24T10:01:16;28.00;77.00
16229;DHT22;8222;51.462;12.630;2022-07-24T10:03:44;28.00;78.00
16229;DHT22;8222;51.462;12.630;2022-07-24T10:06:13;28.20;75.60
16229;DHT22;8222;51.462;12.630;2022-07-24T10:08:41;28.40;75.20
16229;DHT22;8222;51.462;12.630;2022-07-24T10:11:08;28.20;74.20
16229;DHT22;8222;51.462;12.630;2022-07-24T10:13:36;28.10;74.30
16229;DHT22;8222;51.462;12.630;2022-07-24T10:18:50;28.20;74.10
16229;DHT22;8222;51.462;12.630;2022-07-24T10:21:22;28.60;76.10
16229;DHT22;8222;51.462;12.630;2022-07-24T10:26:40;29.20;72.60
16229;DHT22;8222;51.462;12.630;2022-07-24T10:29:07;29.30;72.60
16229;DHT22;8222;51.462;12.630;2022-07-24T10:31:37;29.20;70.60
16229;DHT22;8222;51.462;12.630;2022-07-24T10:34:07;29.00;69.10
16229;DHT22;8222;51.462;12.630;2022-07-24T10:36:36;29.00;68.50
16229;DHT22;8222;51.462;12.630;2022-07-24T10:39:13;28.70;67.60
16229;DHT22;8222;51.462;12.630;2022-07-24T10:41:41;28.80;68.70
16229;DHT22;8222;51.462;12.630;2022-07-24T10:44:17;28.90;68.50
16229;DHT22;8222;51.462;12.630;2022-07-24T10:47:05;29.10;71.20
16229;DHT22;8222;51.462;12.630;2022-07-24T10:52:33;29.50;68.90
16229;DHT22;8222;51.462;12.630;2022-07-24T10:55:33;29.70;68.60
16229;DHT22;8222;51.462;12.630;2022-07-24T10:58:01;29.80;66.00
16229;DHT22;8222;51.462;12.630;2022-07-24T11:03:00;30.20;70.60
16229;DHT22;8222;51.462;12.630;2022-07-24T11:05:37;30.40;65.90
16229;DHT22;8222;51.462;12.630;2022-07-24T11:09:05;30.00;62.70
16229;DHT22;8222;51.462;12.630;2022-07-24T11:11:24;29.70;64.90
16229;DHT22;8222;51.462;12.630;2022-07-24T11:13:53;29.70;63.30
16229;DHT22;8222;51.462;12.630;2022-07-24T11:16:21;29.60;62.80
16229;DHT22;8222;51.462;12.630;2022-07-24T11:21:30;29.60;62.30
16229;DHT22;8222;51.462;12.630;2022-07-24T11:31:38;30.70;66.70
16229;DHT22;8222;51.462;12.630;2022-07-24T11:34:04;30.90;64.80
16229;DHT22;8222;51.462;12.630;2022-07-24T11:36:30;31.00;64.40
16229;DHT22;8222;51.462;12.630;2022-07-24T11:38:56;30.90;59.80
16229;DHT22;8222;51.462;12.630;2022-07-24T11:41:22;30.80;60.90
16229;DHT22;8222;51.462;12.630;2022-07-24T11:43:54;30.90;62.30
16229;DHT22;8222;51.462;12.630;2022-07-24T11:46:36;30.80;60.60
16229;DHT22;8222;51.462;12.630;2022-07-24T11:49:04;30.50;60.30
16229;DHT22;8222;51.462;12.630;2022-07-24T11:51:30;30.60;62.10
16229;DHT22;8222;51.462;12.630;2022-07-24T11:53:58;30.70;61.30
16229;DHT22;8222;51.462;12.630;2022-07-24T11:56:29;30.60;61.60
16229;DHT22;8222;51.462;12.630;2022-07-24T11:58:55;30.30;60.20
16229;DHT22;8222;51.462;12.630;2022-07-24T12:01:22;30.30;60.40
16229;DHT22;8222;51.462;12.630;2022-07-24T12:03:53;30.00;61.10
16229;DHT22;8222;51.462;12.630;2022-07-24T12:06:21;30.10;61.00
16229;DHT22;8222;51.462;12.630;2022-07-24T12:08:49;30.10;61.40
16229;DHT22;8222;51.462;12.630;2022-07-24T12:11:21;30.30;62.00
16229;DHT22;8222;51.462;12.630;2022-07-24T12:13:47;30.50;63.50
16229;DHT22;8222;51.462;12.630;2022-07-24T12:16:25;30.80;61.10
16229;DHT22;8222;51.462;12.630;2022-07-24T12:18:51;30.90;60.40
16229;DHT22;8222;51.462;12.630;2022-07-24T12:21:17;30.90;59.50
16229;DHT22;8222;51.462;12.630;2022-07-24T12:23:47;30.90;60.90
16229;DHT22;8222;51.462;12.630;2022-07-24T12:26:13;30.90;60.20
16229;DHT22;8222;51.462;12.630;2022-07-24T12:28:39;31.00;63.60
16229;DHT22;8222;51.462;12.630;2022-07-24T12:31:08;31.30;61.00
16229;DHT22;8222;51.462;12.630;2022-07-24T12:33:34;31.40;58.10
16229;DHT22;8222;51.462;12.630;2022-07-24T12:36:06;31.40;57.60
16229;DHT22;8222;51.462;12.630;2022-07-24T12:38:51;31.40;57.30
16229;DHT22;8222;51.462;12.630;2022-07-24T12:41:19;31.30;59.00
16229;DHT22;8222;51.462;12.630;2022-07-24T12:44:02;31.40;58.90
16229;DHT22;8222;51.462;12.630;2022-07-24T12:49:03;31.60;60.40
16229;DHT22;8222;51.462;12.630;2022-07-24T12:51:55;31.70;59.70
16229;DHT22;8222;51.462;12.630;2022-07-24T12:54:26;31.70;59.80
16229;DHT22;8222;51.462;12.630;2022-07-24T12:56:55;31.90;58.50
16229;DHT22;8222;51.462;12.630;2022-07-24T12:59:32;32.10;59.80
16229;DHT22;8222;51.462;12.630;2022-07-24T13:02:03;32.10;57.00
16229;DHT22;8222;51.462;12.630;2022-07-24T13:04:29;32.10;56.60
16229;DHT22;8222;51.462;12.630;2022-07-24T13:06:57;32.10;59.20
16229;DHT22;8222;51.462;12.630;2022-07-24T13:09:23;32.20;56.90
16229;DHT22;8222;51.462;12.630;2022-07-24T13:11:52;32.30;57.60
16229;DHT22;8222;51.462;12.630;2022-07-24T13:14:19;32.50;57.30
16229;DHT22;8222;51.462;12.630;2022-07-24T13:16:47;32.50;56.50
16229;DHT22;8222;51.462;12.630;2022-07-24T13:19:14;32.50;55.40
16229;DHT22;8222;51.462;12.630;2022-07-24T13:21:43;32.70;58.10
16229;DHT22;8222;51.462;12.630;2022-07-24T13:24:11;32.70;55.00
16229;DHT22;8222;51.462;12.630;2022-07-24T13:26:38;32.40;54.60
16229;DHT22;8222;51.462;12.630;2022-07-24T13:29:04;32.20;54.70
16229;DHT22;8222;51.462;12.630;2022-07-24T13:31:30;31.80;54.80
16229;DHT22;8222;51.462;12.630;2022-07-24T13:33:56;31.60;55.80
16229;DHT22;8222;51.462;12.630;2022-07-24T13:36:22;31.80;57.60
16229;DHT22;8222;51.462;12.630;2022-07-24T13:38:48;31.90;55.70
16229;DHT22;8222;51.462;12.630;2022-07-24T13:41:14;32.10;54.90
16229;DHT22;8222;51.462;12.630;2022-07-24T13:43:42;32.20;55.90
16229;DHT22;8222;51.462;12.630;2022-07-24T13:46:08;32.30;53.70
16229;DHT22;8222;51.462;12.630;2022-07-24T13:48:34;32.40;54.60
16229;DHT22;8222;51.462;12.630;2022-07-24T13:50:59;32.40;54.60
16229;DHT22;8222;51.462;12.630;2022-07-24T13:53:25;32.30;53.50
16229;DHT22;8222;51.462;12.630;2022-07-24T13:55:52;32.40;55.40
16229;DHT22;8222;51.462;12.630;2022-07-24T13:58:18;32.50;55.30
16229;DHT22;8222;51.462;12.630;2022-07-24T14:00:46;32.60;54.40
16229;DHT22;8222;51.462;12.630;2022-07-24T14:03:12;32.60;52.80
16229;DHT22;8222;51.462;12.630;2022-07-24T14:05:37;32.50;52.30
16229;DHT22;8222;51.462;12.630;2022-07-24T14:08:03;32.40;54.10
16229;DHT22;8222;51.462;12.630;2022-07-24T14:10:31;32.50;53.30
16229;DHT22;8222;51.462;12.630;2022-07-24T14:12:56;32.60;53.10
16229;DHT22;8222;51.462;12.630;2022-07-24T14:15:22;32.70;52.60
16229;DHT22;8222;51.462;12.630;2022-07-24T14:17:48;32.70;52.70
16229;DHT22;8222;51.462;12.630;2022-07-24T14:20:14;32.70;52.50
16229;DHT22;8222;51.462;12.630;2022-07-24T14:22:41;32.70;52.60
16229;DHT22;8222;51.462;12.630;2022-07-24T14:25:07;32.80;53.60
16229;DHT22;8222;51.462;12.630;2022-07-24T14:27:33;32.70;51.50
16229;DHT22;8222;51.462;12.630;2022-07-24T14:29:59;32.70;50.90
16229;DHT22;8222;51.462;12.630;2022-07-24T14:32:27;32.50;52.20
16229;DHT22;8222;51.462;12.630;2022-07-24T14:34:52;32.50;51.10
16229;DHT22;8222;51.462;12.630;2022-07-24T14:37:18;32.50;49.60
16229;DHT22;8222;51.462;12.630;2022-07-24T14:39:44;32.50;51.80
16229;DHT22;8222;51.462;12.630;2022-07-24T14:42:12;32.60;51.20
16229;DHT22;8222;51.462;12.630;2022-07-24T14:44:37;32.60;51.50
16229;DHT22;8222;51.462;12.630;2022-07-24T14:47:03;32.70;52.80
16229;DHT22;8222;51.462;12.630;2022-07-24T14:49:31;32.70;51.20
16229;DHT22;8222;51.462;12.630;2022-07-24T14:51:58;32.60;51.30
16229;DHT22;8222;51.462;12.630;2022-07-24T14:54:23;32.70;50.40
16229;DHT22;8222;51.462;12.630;2022-07-24T14:56:51;32.30;49.50
16229;DHT22;8222;51.462;12.630;2022-07-24T14:59:17;32.10;49.80
16229;DHT22;8222;51.462;12.630;2022-07-24T15:01:45;32.10;50.60
16229;DHT22;8222;51.462;12.630;2022-07-24T15:04:10;32.10;48.70
16229;DHT22;8222;51.462;12.630;2022-07-24T15:06:37;32.20;50.60
16229;DHT22;8222;51.462;12.630;2022-07-24T15:09:03;32.30;49.60
16229;DHT22;8222;51.462;12.630;2022-07-24T15:11:29;32.60;48.70
16229;DHT22;8222;51.462;12.630;2022-07-24T15:13:57;32.80;48.70
16229;DHT22;8222;51.462;12.630;2022-07-24T15:16:22;32.70;48.30
16229;DHT22;8222;51.462;12.630;2022-07-24T15:18:48;32.80;48.60
16229;DHT22;8222;51.462;12.630;2022-07-24T15:21:14;33.00;50.10
16229;DHT22;8222;51.462;12.630;2022-07-24T15:23:39;33.20;50.20
16229;DHT22;8222;51.462;12.630;2022-07-24T15:26:05;33.40;48.60
16229;DHT22;8222;51.462;12.630;2022-07-24T15:28:31;33.70;49.20
16229;DHT22;8222;51.462;12.630;2022-07-24T15:30:57;34.10;49.90
16229;DHT22;8222;51.462;12.630;2022-07-24T15:33:23;34.30;47.70
16229;DHT22;8222;51.462;12.630;2022-07-24T15:35:49;34.30;48.90
16229;DHT22;8222;51.462;12.630;2022-07-24T15:38:15;34.50;48.50
16229;DHT22;8222;51.462;12.630;2022-07-24T15:40:43;34.50;46.80
16229;DHT22;8222;51.462;12.630;2022-07-24T15:43:09;34.40;47.70
16229;DHT22;8222;51.462;12.630;2022-07-24T15:45:35;34.60;46.30
16229;DHT22;8222;51.462;12.630;2022-07-24T15:48:01;34.60;46.50
16229;DHT22;8222;51.462;12.630;2022-07-24T15:50:27;34.60;46.20
16229;DHT22;8222;51.462;12.630;2022-07-24T15:52:53;34.40;46.30
16229;DHT22;8222;51.462;12.630;2022-07-24T15:55:21;34.50;46.30
16229;DHT22;8222;51.462;12.630;2022-07-24T15:57:48;34.80;47.50
16229;DHT22;8222;51.462;12.630;2022-07-24T16:00:14;35.10;48.10
16229;DHT22;8222;51.462;12.630;2022-07-24T16:02:40;35.40;46.90
16229;DHT22;8222;51.462;12.630;2022-07-24T16:05:06;35.70;45.30
16229;DHT22;8222;51.462;12.630;2022-07-24T16:07:31;35.70;45.40
16229;DHT22;8222;51.462;12.630;2022-07-24T16:09:57;35.70;47.10
16229;DHT22;8222;51.462;12.630;2022-07-24T16:12:24;36.00;46.30